createdAt,value
2017-08-29T00:01:15.260Z,18.83
2017-08-29T00:03:42.727Z,20.43
2017-08-29T00:06:10.315Z,23.17
2017-08-29T00:08:37.780Z,19.30
2017-08-29T00:11:05.253Z,22.00
2017-08-29T00:13:32.738Z,19.50
2017-08-29T00:16:00.208Z,18.70
2017-08-29T00:18:27.701Z,20.13
2017-08-29T00:20:55.165Z,19.07
2017-08-29T00:23:22.789Z,17.63
2017-08-29T00:25:50.345Z,17.73
2017-08-29T00:28:17.821Z,21.40
2017-08-29T00:30:45.292Z,16.97
2017-08-29T00:33:13.589Z,18.93
2017-08-29T00:35:41.071Z,18.40
2017-08-29T00:38:08.552Z,20.33
2017-08-29T00:40:36.031Z,17.13
2017-08-29T00:43:03.513Z,22.00
2017-08-29T00:45:31.073Z,19.03
2017-08-29T00:47:58.789Z,20.60
2017-08-29T00:50:26.264Z,21.70
2017-08-29T00:52:53.753Z,19.53
2017-08-29T00:55:21.223Z,18.67
2017-08-29T00:57:48.733Z,20.20
2017-08-29T01:00:16.209Z,19.67
2017-08-29T01:02:43.678Z,20.60
2017-08-29T01:05:11.169Z,23.80
2017-08-29T01:07:38.653Z,20.73
2017-08-29T01:10:06.586Z,19.50
2017-08-29T01:12:34.059Z,23.40
2017-08-29T01:15:01.540Z,16.10
2017-08-29T01:17:29.065Z,18.57
2017-08-29T01:19:56.535Z,21.50
2017-08-29T01:22:24.018Z,19.47
2017-08-29T01:24:51.493Z,17.67
2017-08-29T01:27:18.980Z,21.17
2017-08-29T01:29:46.444Z,22.13
2017-08-29T01:32:13.921Z,23.03
2017-08-29T01:34:41.405Z,20.40
2017-08-29T01:37:08.902Z,18.33
2017-08-29T01:39:36.383Z,22.07
2017-08-29T01:42:03.852Z,17.10
2017-08-29T01:44:31.321Z,18.23
2017-08-29T01:46:58.809Z,18.13
2017-08-29T01:49:26.337Z,23.80
2017-08-29T01:51:53.861Z,16.67
2017-08-29T01:54:21.347Z,19.20
2017-08-29T01:56:48.863Z,20.57
2017-08-29T01:59:16.378Z,16.10
2017-08-29T02:01:43.829Z,15.70
2017-08-29T02:04:11.308Z,22.20
2017-08-29T02:06:38.760Z,25.83
2017-08-29T02:09:06.242Z,15.80
2017-08-29T02:11:33.842Z,15.80
2017-08-29T02:14:01.321Z,20.67
2017-08-29T02:16:28.792Z,19.77
2017-08-29T02:18:56.257Z,19.10
2017-08-29T02:21:23.729Z,19.10
2017-08-29T02:23:51.206Z,18.30
2017-08-29T02:26:18.670Z,16.80
2017-08-29T02:28:46.176Z,21.83
2017-08-29T02:31:13.636Z,18.63
2017-08-29T02:33:41.106Z,20.30
2017-08-29T02:36:08.589Z,16.70
2017-08-29T02:38:36.070Z,19.33
2017-08-29T02:41:03.551Z,16.80
2017-08-29T02:43:31.030Z,17.87
2017-08-29T02:45:58.534Z,18.70
2017-08-29T02:48:26.004Z,19.20
2017-08-29T02:50:53.482Z,17.90
2017-08-29T02:53:20.951Z,18.30
2017-08-29T02:55:48.531Z,19.40
2017-08-29T02:58:16.009Z,16.87
2017-08-29T03:00:43.480Z,18.10
2017-08-29T03:03:10.965Z,18.53
2017-08-29T03:05:38.437Z,19.77
2017-08-29T03:08:06.015Z,20.50
2017-08-29T03:10:34.253Z,16.73
2017-08-29T03:13:01.722Z,17.20
2017-08-29T03:15:29.197Z,17.50
2017-08-29T03:17:56.663Z,17.20
2017-08-29T03:20:24.157Z,16.93
2017-08-29T03:22:51.745Z,22.50
2017-08-29T03:25:19.297Z,20.77
2017-08-29T03:27:46.809Z,18.57
2017-08-29T03:30:14.303Z,20.07
2017-08-29T03:32:41.773Z,18.40
2017-08-29T03:35:09.313Z,18.63
2017-08-29T03:37:36.794Z,18.00
2017-08-29T03:40:04.333Z,19.30
2017-08-29T03:42:31.805Z,24.00
2017-08-29T03:44:59.281Z,20.13
2017-08-29T03:47:27.489Z,19.20
2017-08-29T03:49:54.971Z,18.27
2017-08-29T03:52:22.466Z,20.47
2017-08-29T03:54:49.947Z,19.83
2017-08-29T03:57:17.411Z,20.00
2017-08-29T03:59:44.901Z,18.83
2017-08-29T04:02:12.361Z,23.50
2017-08-29T04:04:39.855Z,20.43
2017-08-29T04:07:07.320Z,19.07
2017-08-29T04:09:35.557Z,20.93
2017-08-29T04:12:03.065Z,20.43
2017-08-29T04:14:30.523Z,21.10
2017-08-29T04:16:57.985Z,19.90
2017-08-29T04:19:25.466Z,19.43
2017-08-29T04:21:52.929Z,18.47
2017-08-29T04:24:20.401Z,17.43
2017-08-29T04:26:47.894Z,19.60
2017-08-29T04:29:15.369Z,21.50
2017-08-29T04:31:42.895Z,21.40
2017-08-29T04:34:10.362Z,21.90
2017-08-29T04:36:37.834Z,18.03
2017-08-29T04:39:05.319Z,20.43
2017-08-29T04:41:32.940Z,22.33
2017-08-29T04:44:00.402Z,21.10
2017-08-29T04:46:27.888Z,23.77
2017-08-29T04:48:55.353Z,23.13
2017-08-29T04:51:22.861Z,21.00
2017-08-29T04:53:50.340Z,26.73
2017-08-29T04:56:17.821Z,20.37
2017-08-29T04:58:45.393Z,22.60
2017-08-29T05:01:12.870Z,35.30
2017-08-29T05:03:40.346Z,20.17
2017-08-29T05:06:07.817Z,21.43
2017-08-29T05:08:35.285Z,19.30
2017-08-29T05:11:02.875Z,19.10
2017-08-29T05:13:30.404Z,33.40
2017-08-29T05:15:57.885Z,23.80
2017-08-29T05:18:25.349Z,22.30
2017-08-29T05:20:52.838Z,19.17
2017-08-29T05:23:20.438Z,19.80
2017-08-29T05:25:47.915Z,22.13
2017-08-29T05:28:15.373Z,26.57
2017-08-29T05:30:42.853Z,28.30
2017-08-29T05:33:10.332Z,33.27
2017-08-29T05:35:38.809Z,21.33
2017-08-29T05:38:06.270Z,29.67
2017-08-29T05:40:33.742Z,41.70
2017-08-29T05:43:01.244Z,23.00
2017-08-29T05:45:28.940Z,28.83
2017-08-29T05:47:56.406Z,29.83
2017-08-29T05:50:23.893Z,24.73
2017-08-29T05:52:51.358Z,24.83
2017-08-29T05:55:18.901Z,23.63
2017-08-29T05:57:46.374Z,23.30
2017-08-29T06:00:13.847Z,21.80
2017-08-29T06:02:41.349Z,20.73
2017-08-29T06:05:08.974Z,21.63
2017-08-29T06:07:36.458Z,21.33
2017-08-29T06:10:03.929Z,23.60
2017-08-29T06:12:31.467Z,23.40
2017-08-29T06:14:59.039Z,28.03
2017-08-29T06:17:26.512Z,25.97
2017-08-29T06:19:54.117Z,25.20
2017-08-29T06:22:21.591Z,26.13
2017-08-29T06:24:49.091Z,21.50
2017-08-29T06:27:17.493Z,21.17
2017-08-29T06:29:44.981Z,21.70
2017-08-29T06:32:12.509Z,27.17
2017-08-29T06:34:39.985Z,31.03
2017-08-29T06:37:07.456Z,23.60
2017-08-29T06:39:34.921Z,27.40
2017-08-29T06:42:02.402Z,20.90
2017-08-29T06:44:29.862Z,23.23
2017-08-29T06:46:57.336Z,20.67
2017-08-29T06:49:24.797Z,22.40
2017-08-29T06:51:52.313Z,26.60
2017-08-29T06:54:19.789Z,26.23
2017-08-29T06:56:47.286Z,23.87
2017-08-29T06:59:14.790Z,28.53
2017-08-29T07:01:42.249Z,23.27
2017-08-29T07:04:09.717Z,27.70
2017-08-29T07:06:37.189Z,31.90
2017-08-29T07:09:05.590Z,25.73
2017-08-29T07:11:33.073Z,25.53
2017-08-29T07:14:00.818Z,27.63
2017-08-29T07:16:28.298Z,29.57
2017-08-29T07:18:55.769Z,27.83
2017-08-29T07:21:23.241Z,28.20
2017-08-29T07:23:50.700Z,31.70
2017-08-29T07:26:18.397Z,34.60
2017-08-29T07:28:45.877Z,33.67
2017-08-29T07:31:13.349Z,28.00
2017-08-29T07:33:40.849Z,26.70
2017-08-29T07:36:08.837Z,32.37
2017-08-29T07:38:36.309Z,56.40
2017-08-29T07:41:03.788Z,32.97
2017-08-29T07:43:31.271Z,28.50
2017-08-29T07:45:58.741Z,34.30
2017-08-29T07:48:26.218Z,26.53
2017-08-29T07:50:53.695Z,22.57
2017-08-29T07:53:21.164Z,25.87
2017-08-29T07:55:48.648Z,23.50
2017-08-29T07:58:16.122Z,21.43
2017-08-29T08:00:43.609Z,23.70
2017-08-29T08:03:11.375Z,27.63
2017-08-29T08:05:38.885Z,20.33
2017-08-29T08:08:06.352Z,17.67
2017-08-29T08:10:34.589Z,23.50
2017-08-29T08:13:02.073Z,24.30
2017-08-29T08:15:29.622Z,20.40
2017-08-29T08:17:57.103Z,30.60
2017-08-29T08:20:24.577Z,19.07
2017-08-29T08:22:52.061Z,20.30
2017-08-29T08:25:19.516Z,21.40
2017-08-29T08:27:47.074Z,20.80
2017-08-29T08:30:14.598Z,19.77
2017-08-29T08:32:42.141Z,24.03
2017-08-29T08:35:09.711Z,24.90
2017-08-29T08:37:38.043Z,23.30
2017-08-29T08:40:05.521Z,20.13
2017-08-29T08:42:32.989Z,18.90
2017-08-29T08:45:00.457Z,20.10
2017-08-29T08:47:27.918Z,22.67
2017-08-29T08:49:55.397Z,22.63
2017-08-29T08:52:22.897Z,19.47
2017-08-29T08:54:50.362Z,22.00
2017-08-29T08:57:17.845Z,21.60
2017-08-29T08:59:45.305Z,24.93
2017-08-29T09:02:12.791Z,24.67
2017-08-29T09:04:40.271Z,18.07
2017-08-29T09:07:07.769Z,19.80
2017-08-29T09:09:35.259Z,18.10
2017-08-29T09:12:03.246Z,28.57
2017-08-29T09:14:30.733Z,26.00
2017-08-29T09:16:58.202Z,19.47
2017-08-29T09:19:25.665Z,20.23
2017-08-29T09:21:53.165Z,17.27
2017-08-29T09:24:20.653Z,14.83
2017-08-29T09:26:48.145Z,15.97
2017-08-29T09:29:15.737Z,16.80
2017-08-29T09:31:43.263Z,19.73
2017-08-29T09:34:10.744Z,20.50
2017-08-29T09:36:38.205Z,16.77
2017-08-29T09:39:05.694Z,21.93
2017-08-29T09:41:33.233Z,23.87
2017-08-29T09:44:00.721Z,25.13
2017-08-29T09:46:28.202Z,17.47
2017-08-29T09:48:55.746Z,26.57
2017-08-29T09:51:23.260Z,16.60
2017-08-29T09:53:50.720Z,21.60
2017-08-29T09:56:18.196Z,19.00
2017-08-29T09:58:45.681Z,20.30
2017-08-29T10:01:13.149Z,13.07
2017-08-29T10:03:40.643Z,19.17
2017-08-29T10:06:08.144Z,16.60
2017-08-29T10:08:35.613Z,17.27
2017-08-29T10:11:03.080Z,26.80
2017-08-29T10:13:30.562Z,19.83
2017-08-29T10:15:58.029Z,16.53
2017-08-29T10:18:25.515Z,14.30
2017-08-29T10:20:53.010Z,16.47
2017-08-29T10:23:20.484Z,27.33
2017-08-29T10:25:47.973Z,18.60
2017-08-29T10:28:15.446Z,15.27
2017-08-29T10:30:42.907Z,22.73
2017-08-29T10:33:10.395Z,21.00
2017-08-29T10:35:37.868Z,15.00
2017-08-29T10:38:05.351Z,12.37
2017-08-29T10:40:32.810Z,15.90
2017-08-29T10:43:00.290Z,21.30
2017-08-29T10:45:27.773Z,13.97
2017-08-29T10:47:55.236Z,15.03
2017-08-29T10:50:22.772Z,25.17
2017-08-29T10:52:50.245Z,15.20
2017-08-29T10:55:17.734Z,20.33
2017-08-29T10:57:45.200Z,15.43
2017-08-29T11:00:12.701Z,12.67
2017-08-29T11:02:40.161Z,17.93
2017-08-29T11:05:07.646Z,12.80
2017-08-29T11:07:35.109Z,12.63
2017-08-29T11:10:02.647Z,16.60
2017-08-29T11:12:30.113Z,14.50
2017-08-29T11:14:57.581Z,13.03
2017-08-29T11:17:25.063Z,15.40
2017-08-29T11:19:52.529Z,13.00
2017-08-29T11:22:20.031Z,14.97
2017-08-29T11:24:47.494Z,11.70
2017-08-29T11:27:14.964Z,12.93
2017-08-29T11:29:42.441Z,14.13
2017-08-29T11:32:10.621Z,11.80
2017-08-29T11:34:38.115Z,15.40
2017-08-29T11:37:05.593Z,13.30
2017-08-29T11:39:33.103Z,14.70
2017-08-29T11:42:00.561Z,10.40
2017-08-29T11:44:28.040Z,11.60
2017-08-29T11:46:55.631Z,10.00
2017-08-29T11:49:23.256Z,9.40
2017-08-29T11:51:50.737Z,10.77
2017-08-29T11:54:18.196Z,12.90
2017-08-29T11:56:45.705Z,12.43
2017-08-29T11:59:13.185Z,8.00
2017-08-29T12:01:40.662Z,7.30
2017-08-29T12:04:08.113Z,12.80
2017-08-29T12:06:35.605Z,8.53
2017-08-29T12:09:03.070Z,12.83
2017-08-29T12:11:30.536Z,8.50
2017-08-29T12:13:58.105Z,12.17
2017-08-29T12:16:25.581Z,10.73
2017-08-29T12:18:53.057Z,16.20
2017-08-29T12:21:20.546Z,8.90
2017-08-29T12:23:48.033Z,13.17
2017-08-29T12:26:15.509Z,7.63
2017-08-29T12:28:43.622Z,7.63
2017-08-29T12:31:11.096Z,8.50
2017-08-29T12:33:38.577Z,8.87
2017-08-29T12:36:06.055Z,8.13
2017-08-29T12:38:33.516Z,9.53
2017-08-29T12:41:01.013Z,11.83
2017-08-29T12:43:28.481Z,11.13
2017-08-29T12:45:55.950Z,10.50
2017-08-29T12:48:23.637Z,10.83
2017-08-29T12:50:51.101Z,9.70
2017-08-29T12:53:18.565Z,11.47
2017-08-29T12:55:46.040Z,8.33
2017-08-29T12:58:13.517Z,7.60
2017-08-29T13:00:41.016Z,15.57
2017-08-29T13:03:08.487Z,10.30
2017-08-29T13:05:35.958Z,16.13
2017-08-29T13:08:03.425Z,11.20
2017-08-29T13:10:30.920Z,11.77
2017-08-29T13:12:58.418Z,17.03
2017-08-29T13:15:25.884Z,8.63
2017-08-29T13:17:53.424Z,10.30
2017-08-29T13:20:20.959Z,11.67
2017-08-29T13:22:48.428Z,9.97
2017-08-29T13:25:15.932Z,16.30
2017-08-29T13:27:43.412Z,21.03
2017-08-29T13:30:10.920Z,14.90
2017-08-29T13:32:38.389Z,23.80
2017-08-29T13:35:05.845Z,17.73
2017-08-29T13:37:33.369Z,14.67
2017-08-29T13:40:00.829Z,13.63
2017-08-29T13:42:28.317Z,20.13
2017-08-29T13:44:55.773Z,13.33
2017-08-29T13:47:23.245Z,9.90
2017-08-29T13:49:50.733Z,18.83
2017-08-29T13:52:18.202Z,15.43
2017-08-29T13:54:45.677Z,17.00
2017-08-29T13:57:13.156Z,12.57
2017-08-29T13:59:40.617Z,9.57
2017-08-29T14:02:08.177Z,9.03
2017-08-29T14:04:35.676Z,17.20
2017-08-29T14:07:03.133Z,15.27
2017-08-29T14:09:30.597Z,8.87
2017-08-29T14:11:58.189Z,11.67
2017-08-29T14:14:25.654Z,8.63
2017-08-29T14:16:53.151Z,10.23
2017-08-29T14:19:20.602Z,10.37
2017-08-29T14:21:48.089Z,19.03
2017-08-29T14:24:15.549Z,11.43
2017-08-29T14:26:43.214Z,11.93
2017-08-29T14:29:10.678Z,10.90
2017-08-29T14:31:38.141Z,8.50
2017-08-29T14:34:05.628Z,15.27
2017-08-29T14:36:33.088Z,13.03
2017-08-29T14:39:00.566Z,9.30
2017-08-29T14:41:28.044Z,14.33
2017-08-29T14:43:55.521Z,12.47
2017-08-29T14:46:34.653Z,16.63
2017-08-29T14:49:13.845Z,16.47
2017-08-29T14:51:41.317Z,15.13
2017-08-29T14:54:08.792Z,13.07
2017-08-29T14:56:36.278Z,13.40
2017-08-29T14:59:04.585Z,16.33
2017-08-29T15:01:32.037Z,21.13
2017-08-29T15:03:59.646Z,16.47
2017-08-29T15:06:27.109Z,10.20
2017-08-29T15:08:54.580Z,15.20
2017-08-29T15:11:22.172Z,16.57
2017-08-29T15:13:49.639Z,9.33
2017-08-29T15:16:17.121Z,11.30
2017-08-29T15:18:44.605Z,14.23
2017-08-29T15:21:12.807Z,10.17
2017-08-29T15:23:40.257Z,8.37
2017-08-29T15:26:07.752Z,9.47
2017-08-29T15:28:35.218Z,9.20
2017-08-29T15:31:02.679Z,8.17
2017-08-29T15:33:30.153Z,16.57
2017-08-29T15:35:57.633Z,9.67
2017-08-29T15:38:25.320Z,7.93
2017-08-29T15:40:52.784Z,9.83
2017-08-29T15:43:20.293Z,10.03
2017-08-29T15:45:47.755Z,8.33
2017-08-29T15:48:15.546Z,9.40
2017-08-29T15:50:43.014Z,7.73
2017-08-29T15:53:10.469Z,8.10
2017-08-29T15:55:37.976Z,8.70
2017-08-29T15:58:05.598Z,12.00
2017-08-29T16:00:33.131Z,9.03
2017-08-29T16:03:00.613Z,9.50
2017-08-29T16:05:28.069Z,21.53
2017-08-29T16:07:55.537Z,12.93
2017-08-29T16:10:22.990Z,8.27
2017-08-29T16:12:50.476Z,9.10
2017-08-29T16:15:18.087Z,8.80
2017-08-29T16:17:45.553Z,10.53
2017-08-29T16:20:13.025Z,10.43
2017-08-29T16:22:40.490Z,10.33
2017-08-29T16:25:07.996Z,8.10
2017-08-29T16:27:35.617Z,12.13
2017-08-29T16:30:03.089Z,8.57
2017-08-29T16:32:30.561Z,8.33
2017-08-29T16:34:58.169Z,9.00
2017-08-29T16:37:25.675Z,11.73
2017-08-29T16:39:53.141Z,12.73
2017-08-29T16:42:20.623Z,12.13
2017-08-29T16:44:48.193Z,9.17
2017-08-29T16:47:15.714Z,12.50
2017-08-29T16:49:43.192Z,13.23
2017-08-29T16:52:10.655Z,17.93
2017-08-29T16:54:38.161Z,14.17
2017-08-29T16:57:05.660Z,10.33
2017-08-29T16:59:33.134Z,8.23
2017-08-29T17:02:00.597Z,9.43
2017-08-29T17:04:28.057Z,8.80
2017-08-29T17:06:55.543Z,10.93
2017-08-29T17:09:23.051Z,9.60
2017-08-29T17:11:50.541Z,14.00
2017-08-29T17:14:18.002Z,16.47
2017-08-29T17:16:45.469Z,9.50
2017-08-29T17:19:12.937Z,8.07
2017-08-29T17:21:40.481Z,14.00
2017-08-29T17:24:07.961Z,10.20
2017-08-29T17:26:35.447Z,8.50
2017-08-29T17:29:02.948Z,8.73
2017-08-29T17:31:30.437Z,8.77
2017-08-29T17:33:57.924Z,9.53
2017-08-29T17:36:25.401Z,9.93
2017-08-29T17:38:53.425Z,13.70
2017-08-29T17:41:20.961Z,14.90
2017-08-29T17:43:48.469Z,12.10
2017-08-29T17:46:15.981Z,14.47
2017-08-29T17:48:43.444Z,12.03
2017-08-29T17:51:10.929Z,10.00
2017-08-29T17:53:38.403Z,11.30
2017-08-29T17:56:05.901Z,11.70
2017-08-29T17:58:33.441Z,8.53
2017-08-29T18:01:00.957Z,10.47
2017-08-29T18:03:28.442Z,9.10
2017-08-29T18:05:55.921Z,10.50
2017-08-29T18:08:23.419Z,8.93
2017-08-29T18:10:50.897Z,8.67
2017-08-29T18:13:18.382Z,7.53
2017-08-29T18:15:45.877Z,13.57
2017-08-29T18:18:13.370Z,10.33
2017-08-29T18:20:40.841Z,15.93
2017-08-29T18:23:08.376Z,12.30
2017-08-29T18:25:35.887Z,8.67
2017-08-29T18:28:03.382Z,7.90
2017-08-29T18:30:30.843Z,8.93
2017-08-29T18:32:58.379Z,14.00
2017-08-29T18:35:25.857Z,12.03
2017-08-29T18:37:53.315Z,9.80
2017-08-29T18:40:20.786Z,9.93
2017-08-29T18:42:48.696Z,8.57
2017-08-29T18:45:16.200Z,11.40
2017-08-29T18:47:43.799Z,16.30
2017-08-29T18:50:11.266Z,9.00
2017-08-29T18:52:38.750Z,12.03
2017-08-29T18:55:06.213Z,9.80
2017-08-29T18:57:33.746Z,10.60
2017-08-29T19:00:01.386Z,13.23
2017-08-29T19:02:28.928Z,9.80
2017-08-29T19:04:56.425Z,13.10
2017-08-29T19:07:23.938Z,12.00
2017-08-29T19:09:51.441Z,14.03
2017-08-29T19:12:18.919Z,10.77
2017-08-29T19:14:46.406Z,10.73
2017-08-29T19:17:13.988Z,8.80
2017-08-29T19:19:41.497Z,8.40
2017-08-29T19:22:08.973Z,10.30
2017-08-29T19:24:36.436Z,9.70
2017-08-29T19:27:03.935Z,14.00
2017-08-29T19:29:31.548Z,12.93
2017-08-29T19:31:59.047Z,11.53
2017-08-29T19:34:26.520Z,11.00
2017-08-29T19:36:53.982Z,8.77
2017-08-29T19:39:21.455Z,8.53
2017-08-29T19:41:48.923Z,9.07
2017-08-29T19:44:16.421Z,10.37
2017-08-29T19:46:43.908Z,12.30
2017-08-29T19:49:11.418Z,11.80
2017-08-29T19:51:38.926Z,8.73
2017-08-29T19:54:06.414Z,8.27
2017-08-29T19:56:33.905Z,16.60
2017-08-29T19:59:01.636Z,9.63
2017-08-29T20:01:29.154Z,11.80
2017-08-29T20:03:56.761Z,10.57
2017-08-29T20:06:24.309Z,10.20
2017-08-29T20:08:51.826Z,14.60
2017-08-29T20:11:19.313Z,10.77
2017-08-29T20:13:46.797Z,8.33
2017-08-29T20:16:14.314Z,12.10
2017-08-29T20:18:41.841Z,12.60
2017-08-29T20:21:09.296Z,9.10
2017-08-29T20:23:36.800Z,23.07
2017-08-29T20:26:04.285Z,8.90
2017-08-29T20:28:31.744Z,8.90
2017-08-29T20:30:59.237Z,9.27
2017-08-29T20:33:26.849Z,8.90
2017-08-29T20:35:54.363Z,13.93
2017-08-29T20:38:21.831Z,10.57
2017-08-29T20:40:49.321Z,10.40
2017-08-29T20:43:16.795Z,9.03
2017-08-29T20:45:44.284Z,15.20
2017-08-29T20:48:11.847Z,12.03
2017-08-29T20:50:39.329Z,9.77
2017-08-29T20:53:06.805Z,8.53
2017-08-29T20:55:34.291Z,12.27
2017-08-29T20:58:01.902Z,11.57
2017-08-29T21:00:29.404Z,10.40
2017-08-29T21:02:57.148Z,8.90
2017-08-29T21:05:24.639Z,9.67
2017-08-29T21:07:52.189Z,9.40
2017-08-29T21:10:19.664Z,14.57
2017-08-29T21:12:47.246Z,11.83
2017-08-29T21:15:14.748Z,8.90
2017-08-29T21:17:42.246Z,9.60
2017-08-29T21:20:10.087Z,9.60
2017-08-29T21:22:37.749Z,11.40
2017-08-29T21:25:05.395Z,13.90
2017-08-29T21:27:33.209Z,8.73
2017-08-29T21:30:00.732Z,10.20
2017-08-29T21:32:28.329Z,12.60
2017-08-29T21:34:55.822Z,9.17
2017-08-29T21:37:23.579Z,11.77
2017-08-29T21:39:51.062Z,11.07
2017-08-29T21:42:18.534Z,8.87
2017-08-29T21:44:46.055Z,9.60
2017-08-29T21:47:13.532Z,11.13
2017-08-29T21:49:41.037Z,9.37
2017-08-29T21:52:08.696Z,11.33
2017-08-29T21:54:36.429Z,9.17
2017-08-29T21:57:04.067Z,10.80
2017-08-29T21:59:31.554Z,12.33
2017-08-29T22:01:59.053Z,9.30
2017-08-29T22:04:26.672Z,13.20
2017-08-29T22:06:54.512Z,9.73
2017-08-29T22:09:22.008Z,8.80
2017-08-29T22:11:49.470Z,10.20
2017-08-29T22:14:17.739Z,11.30
2017-08-29T22:16:45.305Z,9.57
2017-08-29T22:19:12.920Z,12.20
2017-08-29T22:21:40.425Z,9.67
2017-08-29T22:24:07.942Z,9.37
2017-08-29T22:26:35.455Z,12.30
2017-08-29T22:29:02.942Z,9.87
2017-08-29T22:31:30.496Z,10.30
2017-08-29T22:33:57.958Z,14.00
2017-08-29T22:36:25.445Z,9.40
2017-08-29T22:38:53.124Z,9.80
2017-08-29T22:41:20.710Z,10.77
2017-08-29T22:43:48.214Z,9.73
2017-08-29T22:46:15.738Z,15.40
2017-08-29T22:48:43.223Z,10.00
2017-08-29T22:51:10.716Z,11.90
2017-08-29T22:53:38.198Z,8.93
2017-08-29T22:56:05.667Z,10.37
2017-08-29T22:58:33.150Z,10.70
2017-08-29T23:01:00.734Z,10.50
2017-08-29T23:03:28.373Z,9.80
2017-08-29T23:05:55.891Z,12.30
2017-08-29T23:08:23.372Z,8.87
2017-08-29T23:10:50.899Z,9.30
2017-08-29T23:13:18.426Z,13.20
2017-08-29T23:15:45.912Z,11.63
2017-08-29T23:18:13.395Z,13.90
2017-08-29T23:20:40.871Z,9.70
2017-08-29T23:23:08.414Z,10.03
2017-08-29T23:25:35.890Z,12.53
2017-08-29T23:28:03.399Z,9.30
2017-08-29T23:30:30.894Z,12.90
2017-08-29T23:32:58.496Z,10.97
2017-08-29T23:35:25.974Z,12.90
2017-08-29T23:37:53.459Z,10.27
2017-08-29T23:40:20.918Z,13.77
2017-08-29T23:42:48.397Z,11.40
2017-08-29T23:45:15.885Z,11.23
2017-08-29T23:47:43.357Z,14.50
2017-08-29T23:50:10.848Z,13.77
2017-08-29T23:52:38.361Z,11.17
2017-08-29T23:55:06.020Z,10.63
2017-08-29T23:57:33.490Z,12.00
